Time;durP1;ratioP1;P1;durP2;ratioP2;P2;SDS_P1;SDS_P2;PMS_P1;PMS_P2;Temp;Humidity;BMP_temperature;BMP_pressure;BME280_temperature;BME280_humidity;BME280_pressure;Samples;Min_cycle;Max_cycle;Signal;HPM_P1;HPM_P2
2021/12/17 00:00:21;;;;;;;9.93;6.20;;;6.70;99.90;;;;;;5052102;28;20036;-72
2021/12/17 00:05:45;;;;;;;9.20;5.93;;;6.70;99.90;;;;;;5053323;28;20043;-72
2021/12/17 00:08:12;;;;;;;12.88;6.75;;;6.70;99.90;;;;;;5047502;28;20461;-72
2021/12/17 00:10:39;;;;;;;8.55;6.07;;;6.80;99.90;;;;;;5050499;28;20052;-71
2021/12/17 00:13:06;;;;;;;8.45;5.68;;;6.60;99.90;;;;;;5049731;28;20042;-71
2021/12/17 00:15:34;;;;;;;9.23;6.07;;;6.40;99.90;;;;;;5052650;28;20438;-72
2021/12/17 00:18:09;;;;;;;11.32;6.90;;;6.20;99.90;;;;;;5046594;28;20039;-72
2021/12/17 00:48:25;;;;;;;11.88;7.53;;;5.60;99.90;;;;;;5048978;28;20040;-71
2021/12/17 00:53:24;;;;;;;10.95;7.25;;;5.50;99.90;;;;;;5055312;28;20675;-71
2021/12/17 00:55:49;;;;;;;13.35;8.10;;;5.50;99.90;;;;;;5052862;28;20070;-72
2021/12/17 00:58:15;;;;;;;11.97;7.63;;;5.50;99.90;;;;;;5056302;28;21173;-72
2021/12/17 01:00:41;;;;;;;11.57;7.33;;;5.50;99.90;;;;;;5055805;28;20035;-72
2021/12/17 01:03:07;;;;;;;12.13;7.67;;;5.50;99.90;;;;;;5050756;28;20514;-72
2021/12/17 01:05:34;;;;;;;12.97;7.90;;;5.40;99.90;;;;;;5056240;28;20148;-71
2021/12/17 01:08:03;;;;;;;12.52;7.75;;;5.50;99.90;;;;;;5052701;28;20293;-72
2021/12/17 01:10:40;;;;;;;16.20;8.57;;;5.40;99.90;;;;;;5056104;28;21067;-71
2021/12/17 01:13:07;;;;;;;13.57;7.75;;;5.40;99.90;;;;;;5053529;28;20031;-71
2021/12/17 01:15:36;;;;;;;;;;;5.40;99.90;;;;;;5057685;28;20028;-71
2021/12/17 01:18:08;;;;;;;14.85;8.52;;;5.30;99.90;;;;;;5051071;28;19912;-71
2021/12/17 01:42:28;;;;;;;12.88;7.85;;;5.30;99.90;;;;;;5050170;28;20135;-71
2021/12/17 01:44:54;;;;;;;14.20;8.68;;;5.40;99.90;;;;;;5055540;28;20921;-72
2021/12/17 01:47:20;;;;;;;14.90;8.90;;;5.30;99.90;;;;;;5049287;28;20059;-72
2021/12/17 02:00:44;;;;;;;15.27;8.60;;;5.30;99.90;;;;;;5045619;28;20067;-72
2021/12/17 02:03:12;;;;;;;13.15;8.15;;;5.30;99.90;;;;;;5053562;28;20035;-71
2021/12/17 02:05:39;;;;;;;13.77;8.70;;;5.20;99.90;;;;;;5044844;28;20537;-71
2021/12/17 02:08:08;;;;;;;15.82;9.10;;;5.30;99.90;;;;;;5053793;28;20075;-71
2021/12/17 02:32:13;;;;;;;14.93;8.35;;;5.10;99.90;;;;;;5054849;28;20027;-71
2021/12/17 02:37:16;;;;;;;15.02;8.60;;;5.10;99.90;;;;;;5051751;28;20074;-72
2021/12/17 02:47:56;;;;;;;15.23;8.55;;;5.10;99.90;;;;;;5048971;28;20062;-71
2021/12/17 02:50:22;;;;;;;11.80;7.70;;;5.20;99.90;;;;;;5047352;28;20016;-72
2021/12/17 02:52:50;;;;;;;14.63;8.57;;;5.10;99.90;;;;;;5051451;28;20020;-71
2021/12/17 02:55:16;;;;;;;12.52;7.65;;;5.10;99.90;;;;;;5052059;28;20788;-71
2021/12/17 02:57:42;;;;;;;12.10;7.75;;;5.10;99.90;;;;;;5049293;28;20426;-71
2021/12/17 03:00:08;;;;;;;13.30;7.80;;;5.10;99.90;;;;;;5052467;28;20051;-72
2021/12/17 03:02:38;;;;;;;14.50;8.68;;;5.10;99.90;;;;;;5049235;28;20024;-71
2021/12/17 03:05:04;;;;;;;14.75;8.50;;;5.10;99.90;;;;;;5052523;28;20052;-72
2021/12/17 03:07:30;;;;;;;;;;;5.10;99.90;;;;;;5046786;28;20040;-72
2021/12/17 03:12:32;;;;;;;13.23;7.88;;;5.10;99.90;;;;;;5045668;28;20032;-71
2021/12/17 03:15:10;;;;;;;12.95;7.72;;;5.10;99.90;;;;;;5051302;28;20028;-71
2021/12/17 03:25:37;;;;;;;12.85;8.05;;;5.00;99.90;;;;;;5049194;28;20027;-71
2021/12/17 03:28:03;;;;;;;13.10;7.93;;;5.00;99.90;;;;;;5053302;28;20020;-71
2021/12/17 03:30:30;;;;;;;12.73;8.02;;;4.90;99.90;;;;;;5047628;28;20028;-71
2021/12/17 03:32:56;;;;;;;14.27;8.20;;;4.90;99.90;;;;;;5053735;28;20099;-71
2021/12/17 03:35:22;;;;;;;16.03;8.33;;;4.90;99.90;;;;;;5051597;28;20115;-72
2021/12/17 03:37:48;;;;;;;14.18;8.73;;;4.90;99.90;;;;;;5052412;28;20899;-71
2021/12/17 03:40:16;;;;;;;12.37;8.47;;;5.00;99.90;;;;;;5051495;28;20086;-71
2021/12/17 03:42:47;;;;;;;15.57;8.02;;;5.00;99.90;;;;;;5049091;28;20243;-71
2021/12/17 03:45:15;;;;;;;13.00;7.88;;;4.90;99.90;;;;;;5052435;28;20397;-71
2021/12/17 03:47:41;;;;;;;15.80;8.82;;;4.90;99.90;;;;;;5047745;28;20016;-71
2021/12/17 03:50:07;;;;;;;15.13;9.00;;;4.90;99.90;;;;;;5049408;28;20013;-71
2021/12/17 03:52:33;;;;;;;15.40;9.13;;;4.90;99.90;;;;;;5049230;28;20110;-71
2021/12/17 03:55:00;;;;;;;14.45;8.55;;;4.90;99.90;;;;;;5051697;28;20028;-71
2021/12/17 03:57:26;;;;;;;;;;;4.90;99.90;;;;;;5047831;28;20150;-72
2021/12/17 03:59:52;;;;;;;17.80;8.70;;;4.90;99.90;;;;;;5051025;28;19999;-72
2021/12/17 04:02:18;;;;;;;13.73;7.73;;;4.90;99.90;;;;;;5052858;28;20524;-71
2021/12/17 04:04:44;;;;;;;14.23;8.13;;;4.90;99.90;;;;;;5047704;28;20111;-71
2021/12/17 04:07:10;;;;;;;13.13;7.40;;;4.90;99.90;;;;;;5047772;28;20580;-72
2021/12/17 04:09:36;;;;;;;12.40;7.50;;;4.90;99.90;;;;;;5051772;28;20093;-71
2021/12/17 04:12:06;;;;;;;14.55;7.93;;;4.90;99.90;;;;;;5048703;28;20029;-72
2021/12/17 04:14:41;;;;;;;14.10;7.90;;;4.90;99.90;;;;;;5051610;28;20024;-71
2021/12/17 04:17:08;;;;;;;13.60;8.15;;;4.90;99.90;;;;;;5049645;28;20027;-71
2021/12/17 04:19:34;;;;;;;15.93;8.73;;;4.90;99.90;;;;;;5051998;28;20025;-71
2021/12/17 04:22:00;;;;;;;13.90;7.78;;;4.90;99.90;;;;;;5047627;28;20136;-72
2021/12/17 04:24:26;;;;;;;13.83;7.97;;;4.90;99.90;;;;;;5052755;28;20120;-71
2021/12/17 04:26:52;;;;;;;13.88;8.30;;;4.90;99.90;;;;;;5050331;28;20067;-71
2021/12/17 04:29:20;;;;;;;12.13;7.32;;;5.00;99.90;;;;;;5052088;28;20028;-71
2021/12/17 04:31:52;;;;;;;14.50;7.50;;;4.90;99.90;;;;;;5052779;28;20021;-71
2021/12/17 04:34:18;;;;;;;13.40;7.07;;;4.90;99.90;;;;;;5049811;28;20201;-71
2021/12/17 04:36:47;;;;;;;14.80;8.30;;;4.90;99.90;;;;;;5050789;28;20736;-71
2021/12/17 04:39:13;;;;;;;13.52;8.00;;;4.90;99.90;;;;;;5048417;28;20029;-71
2021/12/17 04:41:51;;;;;;;12.13;7.00;;;4.90;99.90;;;;;;5050263;28;20016;-71
2021/12/17 04:44:27;;;;;;;12.73;7.68;;;4.90;99.90;;;;;;5045719;28;20111;-71
2021/12/17 04:57:15;;;;;;;14.32;8.07;;;4.90;99.90;;;;;;5050090;28;20024;-72
2021/12/17 04:57:52;;;;;;;14.60;7.93;;;4.90;99.90;;;;;;5052873;28;20063;-71
2021/12/17 05:00:22;;;;;;;13.90;7.55;;;4.90;99.90;;;;;;5049618;28;20107;-71
2021/12/17 05:02:51;;;;;;;13.05;7.65;;;4.90;99.90;;;;;;5051028;28;20039;-72
2021/12/17 05:05:19;;;;;;;12.68;7.47;;;4.90;99.90;;;;;;5048392;28;21049;-71
2021/12/17 05:07:54;;;;;;;12.93;7.60;;;4.90;99.90;;;;;;5056585;28;20036;-71
2021/12/17 05:18:27;;;;;;;11.75;6.80;;;4.90;99.90;;;;;;5055231;28;20617;-71
2021/12/17 05:21:00;;;;;;;13.45;7.93;;;4.90;99.90;;;;;;5054235;28;20044;-72
2021/12/17 05:23:32;;;;;;;13.02;7.70;;;4.90;99.90;;;;;;5056130;28;20119;-72
2021/12/17 05:26:08;;;;;;;12.77;8.23;;;4.90;99.90;;;;;;5050066;28;20025;-72
2021/12/17 05:28:34;;;;;;;13.40;7.63;;;4.90;99.90;;;;;;5055413;28;20024;-72
2021/12/17 05:31:00;;;;;;;12.70;7.53;;;4.90;99.90;;;;;;5050673;28;20025;-72
2021/12/17 05:33:27;;;;;;;13.37;7.07;;;4.90;99.90;;;;;;5056527;28;20020;-72
2021/12/17 05:35:53;;;;;;;13.02;7.45;;;4.90;99.90;;;;;;5055677;28;20342;-71
2021/12/17 05:38:21;;;;;;;13.45;7.72;;;4.90;99.90;;;;;;5055311;28;20029;-72
2021/12/17 05:40:56;;;;;;;10.88;7.75;;;4.90;99.90;;;;;;5049640;28;20036;-72
2021/12/17 05:43:21;;;;;;;;;;;4.90;99.90;;;;;;5052881;28;20486;-72
2021/12/17 05:46:07;;;;;;;13.85;7.18;;;4.90;99.90;;;;;;5056149;28;19919;-72
2021/12/17 05:48:33;;;;;;;11.60;7.07;;;4.90;99.90;;;;;;5054167;28;20066;-72
2021/12/17 05:51:04;;;;;;;12.50;7.20;;;4.90;99.90;;;;;;5051583;28;20033;-73
2021/12/17 05:53:30;;;;;;;11.30;6.55;;;4.80;99.90;;;;;;5052111;28;20025;-72
2021/12/17 05:55:56;;;;;;;13.40;7.23;;;4.90;99.90;;;;;;5052684;28;20013;-72
2021/12/17 05:58:23;;;;;;;10.88;6.10;;;4.80;99.90;;;;;;5052566;28;20170;-72
2021/12/17 06:00:50;;;;;;;11.23;6.07;;;4.80;99.90;;;;;;5054181;28;20052;-72
2021/12/17 06:03:18;;;;;;;11.20;6.10;;;4.90;99.90;;;;;;5048092;28;20033;-71
2021/12/17 06:05:44;;;;;;;9.68;6.10;;;4.90;99.90;;;;;;5055525;28;20024;-72
2021/12/17 06:08:10;;;;;;;11.13;6.18;;;4.90;99.90;;;;;;5048526;28;20279;-72
2021/12/17 06:10:38;;;;;;;11.20;6.77;;;4.90;99.90;;;;;;5051911;28;20522;-72
2021/12/17 06:13:09;;;;;;;10.93;6.03;;;4.90;99.90;;;;;;5050499;28;20024;-72
2021/12/17 06:15:36;;;;;;;10.32;6.43;;;4.90;99.90;;;;;;5052314;28;20024;-71
2021/12/17 06:18:03;;;;;;;11.95;6.60;;;4.90;99.90;;;;;;5049816;28;20028;-71
2021/12/17 06:20:28;;;;;;;10.85;6.30;;;4.90;99.90;;;;;;5051928;28;20036;-71
2021/12/17 06:22:54;;;;;;;10.73;5.93;;;4.90;99.90;;;;;;5050574;28;20094;-71
2021/12/17 06:25:20;;;;;;;10.77;6.53;;;4.80;99.90;;;;;;5054152;28;20648;-72
2021/12/17 06:27:46;;;;;;;8.83;5.50;;;4.90;99.90;;;;;;5053488;28;20028;-72
2021/12/17 06:30:15;;;;;;;10.20;6.32;;;4.90;99.90;;;;;;5048406;28;20020;-71
2021/12/17 06:32:41;;;;;;;12.93;6.32;;;4.90;99.90;;;;;;5054079;28;20017;-71
2021/12/17 06:35:08;;;;;;;9.93;6.32;;;4.90;99.90;;;;;;5050690;28;20826;-71
2021/12/17 06:37:34;;;;;;;11.93;6.68;;;4.90;99.90;;;;;;5055128;28;20024;-71
2021/12/17 06:40:02;;;;;;;11.93;6.63;;;4.80;99.90;;;;;;5048932;28;20537;-72
2021/12/17 06:42:28;;;;;;;10.57;6.25;;;4.80;99.90;;;;;;5053773;28;20020;-71
2021/12/17 06:44:57;;;;;;;12.37;6.13;;;4.80;99.90;;;;;;5053150;28;20908;-72
2021/12/17 06:47:32;;;;;;;11.80;6.85;;;4.80;99.90;;;;;;5051769;28;20097;-71
2021/12/17 06:58:41;;;;;;;12.23;6.85;;;4.90;99.90;;;;;;5053273;28;20039;-71
2021/12/17 07:22:46;;;;;;;13.27;6.60;;;5.30;99.90;;;;;;5050583;28;20039;-72
2021/12/17 07:33:16;;;;;;;12.15;6.65;;;5.40;99.90;;;;;;5053899;28;20035;-71
2021/12/17 07:35:45;;;;;;;10.48;6.05;;;5.40;99.90;;;;;;5053867;28;20101;-71
2021/12/17 07:41:17;;;;;;;14.52;7.25;;;5.50;99.90;;;;;;4998128;28;20243;-71
2021/12/17 07:43:53;;;;;;;12.38;6.75;;;5.50;99.90;;;;;;4983590;28;20647;-71
2021/12/17 07:46:19;;;;;;;13.05;7.20;;;5.50;99.90;;;;;;5026547;28;20094;-71
2021/12/17 07:48:45;;;;;;;13.32;6.63;;;5.60;99.90;;;;;;5052445;28;20029;-71
2021/12/17 07:51:14;;;;;;;14.63;7.10;;;5.60;99.90;;;;;;5049455;28;20035;-71
2021/12/17 07:53:40;;;;;;;16.27;7.18;;;5.70;99.90;;;;;;5051813;28;20179;-71
2021/12/17 07:56:10;;;;;;;13.45;6.80;;;5.80;99.90;;;;;;5047183;28;20017;-71
2021/12/17 07:58:36;;;;;;;13.88;7.03;;;5.70;99.90;;;;;;5052256;28;20032;-72
2021/12/17 08:01:03;;;;;;;12.50;7.10;;;5.80;99.90;;;;;;5044422;28;20032;-72
2021/12/17 08:03:28;;;;;;;12.65;6.40;;;5.80;99.90;;;;;;5052668;28;20032;-72
2021/12/17 08:05:55;;;;;;;;;;;5.80;99.90;;;;;;5049123;28;20052;-72
2021/12/17 08:08:21;;;;;;;12.27;6.45;;;6.00;99.90;;;;;;5051434;28;19920;-71
2021/12/17 08:10:47;;;;;;;16.67;6.63;;;6.00;99.90;;;;;;5052345;28;20025;-71
2021/12/17 08:13:28;;;;;;;11.43;5.73;;;6.00;99.90;;;;;;5046335;28;21762;-72
2021/12/17 08:26:18;;;;;;;9.48;5.45;;;6.30;99.90;;;;;;5047871;28;20036;-71
2021/12/17 08:31:20;;;;;;;9.93;5.95;;;6.40;99.90;;;;;;5048057;28;20634;-71
2021/12/17 08:33:47;;;;;;;12.65;5.97;;;6.40;99.90;;;;;;5052676;28;20036;-71
2021/12/17 08:36:14;;;;;;;10.80;4.95;;;6.40;99.90;;;;;;5048893;28;20356;-71
2021/12/17 08:38:41;;;;;;;11.18;5.75;;;6.40;99.90;;;;;;5052042;28;20036;-72
2021/12/17 08:41:08;;;;;;;8.45;4.75;;;6.50;99.90;;;;;;5045845;28;20033;-72
2021/12/17 08:43:35;;;;;;;11.68;5.28;;;6.50;99.90;;;;;;5054715;28;20033;-72
2021/12/17 08:46:03;;;;;;;8.05;4.43;;;6.50;99.90;;;;;;5053062;28;20036;-72
2021/12/17 08:48:29;;;;;;;14.90;4.90;;;6.50;99.90;;;;;;5055060;28;20156;-72
2021/12/17 08:50:57;;;;;;;16.95;5.90;;;6.50;99.90;;;;;;5055197;28;20024;-71
2021/12/17 08:53:23;;;;;;;9.82;4.47;;;6.50;99.90;;;;;;5055432;28;20136;-71
2021/12/17 08:55:49;;;;;;;10.27;5.17;;;6.40;99.90;;;;;;5056458;28;20031;-71
2021/12/17 08:58:15;;;;;;;10.57;5.05;;;6.50;99.90;;;;;;5052209;28;20036;-72
2021/12/17 09:00:42;;;;;;;9.70;5.00;;;6.50;99.90;;;;;;5053559;28;20032;-71
2021/12/17 09:03:09;;;;;;;;;;;6.50;99.90;;;;;;5048724;28;20027;-71
2021/12/17 09:05:38;;;;;;;10.48;4.78;;;6.50;99.90;;;;;;5055576;28;19919;-71
2021/12/17 09:08:05;;;;;;;9.40;5.10;;;6.50;99.90;;;;;;5053976;28;20024;-72
2021/12/17 09:10:32;;;;;;;11.65;5.72;;;6.50;99.90;;;;;;5057788;28;20078;-71
2021/12/17 09:12:58;;;;;;;9.57;4.88;;;6.40;99.90;;;;;;5055471;28;20133;-72
2021/12/17 09:15:24;;;;;;;8.63;4.53;;;6.40;99.90;;;;;;5057024;28;20509;-71
2021/12/17 09:17:50;;;;;;;10.18;4.85;;;6.40;99.90;;;;;;5057489;28;20082;-72
2021/12/17 09:20:16;;;;;;;9.47;5.13;;;6.40;99.90;;;;;;5048737;28;20040;-72
2021/12/17 09:22:41;;;;;;;8.23;4.90;;;6.50;99.90;;;;;;5055682;28;20477;-72
2021/12/17 09:25:08;;;;;;;8.90;5.47;;;6.50;99.90;;;;;;5053549;28;20493;-72
2021/12/17 09:27:35;;;;;;;8.60;5.00;;;6.50;99.90;;;;;;5053844;28;20059;-72
2021/12/17 09:30:06;;;;;;;9.07;4.72;;;6.50;99.90;;;;;;5049335;28;20071;-72
2021/12/17 09:32:32;;;;;;;9.00;5.18;;;6.50;99.90;;;;;;5053080;28;20027;-72
2021/12/17 09:34:59;;;;;;;9.57;5.70;;;6.50;99.90;;;;;;5055826;28;20096;-72
2021/12/17 09:37:24;;;;;;;8.60;5.05;;;6.50;99.90;;;;;;5049286;28;20055;-72
2021/12/17 09:39:50;;;;;;;11.60;5.50;;;6.60;99.90;;;;;;5053187;28;20121;-72
2021/12/17 09:42:16;;;;;;;8.77;4.97;;;6.70;99.90;;;;;;5048971;28;20037;-72
2021/12/17 09:44:43;;;;;;;11.17;5.20;;;6.70;99.90;;;;;;5055241;28;20029;-72
2021/12/17 09:47:09;;;;;;;10.30;5.18;;;6.70;99.90;;;;;;5051536;28;20032;-72
2021/12/17 09:49:34;;;;;;;11.15;5.50;;;6.70;99.90;;;;;;5054825;28;20114;-72
2021/12/17 09:52:01;;;;;;;8.93;5.03;;;6.80;99.90;;;;;;5054248;28;20071;-72
2021/12/17 09:54:27;;;;;;;10.07;5.40;;;6.80;99.90;;;;;;5055572;28;20020;-72
2021/12/17 09:56:53;;;;;;;8.43;5.03;;;6.70;99.80;;;;;;5053056;28;20052;-72
2021/12/17 09:59:19;;;;;;;9.30;5.13;;;6.70;99.90;;;;;;5052682;28;20350;-72
2021/12/17 10:01:46;;;;;;;7.63;5.05;;;6.60;99.90;;;;;;5053671;28;20044;-73
2021/12/17 10:04:14;;;;;;;9.43;5.47;;;6.70;99.90;;;;;;5051827;28;20048;-72
2021/12/17 10:06:40;;;;;;;11.50;5.93;;;6.70;99.90;;;;;;5054251;28;20021;-72
2021/12/17 10:09:08;;;;;;;9.53;4.50;;;6.80;99.60;;;;;;5050993;28;20031;-72
2021/12/17 10:11:34;;;;;;;13.52;5.85;;;6.80;99.60;;;;;;5054896;28;20308;-72
2021/12/17 10:14:22;;;;;;;11.15;6.47;;;6.80;99.50;;;;;;5052536;28;20040;-72
2021/12/17 10:16:47;;;;;;;;;;;6.80;99.00;;;;;;5054890;28;20035;-72
2021/12/17 10:19:42;;;;;;;14.63;6.25;;;6.80;98.90;;;;;;5049669;28;19904;-72
2021/12/17 10:22:13;;;;;;;19.67;8.05;;;6.90;98.80;;;;;;5045157;28;20075;-72
2021/12/17 10:24:45;;;;;;;11.25;5.70;;;6.90;98.30;;;;;;5051373;28;20482;-72
2021/12/17 10:27:22;;;;;;;10.65;5.47;;;6.90;98.20;;;;;;5045817;28;20074;-72
2021/12/17 10:29:48;;;;;;;10.43;4.88;;;6.90;98.30;;;;;;5053270;28;20132;-72
2021/12/17 10:32:20;;;;;;;15.40;5.60;;;6.90;98.70;;;;;;5049542;28;20035;-72
2021/12/17 10:35:13;;;;;;;8.88;4.85;;;6.90;98.80;;;;;;5052091;28;20060;-72
2021/12/17 10:37:44;;;;;;;8.40;5.05;;;7.00;98.40;;;;;;5052655;28;20565;-72
2021/12/17 10:40:19;;;;;;;9.15;5.10;;;7.00;98.00;;;;;;5046224;28;20024;-72
2021/12/17 10:42:54;;;;;;;11.02;4.90;;;7.00;98.20;;;;;;5049223;28;20432;-72
2021/12/17 10:45:31;;;;;;;8.45;4.93;;;7.00;98.10;;;;;;5052246;28;20021;-72
2021/12/17 10:50:52;;;;;;;10.85;5.10;;;7.10;97.70;;;;;;5049687;28;20048;-72
2021/12/17 10:53:24;;;;;;;10.02;4.43;;;7.30;97.20;;;;;;5052755;28;20035;-72
2021/12/17 10:55:50;;;;;;;6.90;4.28;;;7.30;95.90;;;;;;5048189;28;20173;-72
2021/12/17 10:58:17;;;;;;;9.68;4.78;;;7.30;95.80;;;;;;5053125;28;20029;-72
2021/12/17 11:01:06;;;;;;;9.38;4.43;;;7.40;96.10;;;;;;5047810;28;20025;-72
2021/12/17 11:03:42;;;;;;;11.43;4.25;;;7.40;94.90;;;;;;5048733;28;20036;-72
2021/12/17 11:06:08;;;;;;;9.93;4.28;;;7.50;95.10;;;;;;5051906;28;20032;-73
2021/12/17 11:08:37;;;;;;;7.05;4.40;;;7.60;94.80;;;;;;5049614;28;20111;-72
2021/12/17 11:11:12;;;;;;;11.45;5.20;;;7.70;94.70;;;;;;5053848;28;20113;-72
2021/12/17 11:13:58;;;;;;;10.00;4.63;;;7.80;93.60;;;;;;5050008;28;20024;-72
2021/12/17 11:16:27;;;;;;;7.65;4.22;;;8.00;93.70;;;;;;5049798;28;20027;-72
2021/12/17 11:18:54;;;;;;;9.43;4.70;;;8.40;92.30;;;;;;5049415;28;20575;-72
2021/12/17 11:21:20;;;;;;;7.28;4.07;;;8.50;91.50;;;;;;5054171;28;20866;-72
2021/12/17 11:23:49;;;;;;;8.23;4.10;;;8.80;91.30;;;;;;5048316;28;20103;-72
2021/12/17 11:26:15;;;;;;;8.13;4.65;;;9.10;90.60;;;;;;5053049;28;20039;-72
2021/12/17 11:28:44;;;;;;;9.52;4.95;;;9.00;90.20;;;;;;5047368;28;20021;-72
2021/12/17 11:31:10;;;;;;;9.18;4.65;;;9.00;90.10;;;;;;5050145;28;20020;-72
2021/12/17 11:33:38;;;;;;;17.63;5.57;;;9.20;90.40;;;;;;5048036;28;20020;-73
2021/12/17 11:36:05;;;;;;;8.35;4.30;;;9.40;89.60;;;;;;5053494;28;20013;-72
2021/12/17 11:38:52;;;;;;;10.88;4.70;;;9.60;88.30;;;;;;5052567;28;20078;-72
2021/12/17 11:41:36;;;;;;;8.68;4.35;;;9.90;86.30;;;;;;5050586;28;20034;-72
2021/12/17 11:44:08;;;;;;;7.53;3.72;;;10.10;85.30;;;;;;5048110;28;20634;-71
2021/12/17 11:46:35;;;;;;;7.63;4.15;;;10.20;84.60;;;;;;5050021;28;20731;-72
2021/12/17 11:49:11;;;;;;;9.77;4.55;;;10.10;84.50;;;;;;5050128;28;20028;-72
2021/12/17 11:51:37;;;;;;;8.60;4.47;;;9.90;84.50;;;;;;5044863;28;20040;-72
2021/12/17 11:54:07;;;;;;;6.77;4.13;;;9.70;85.90;;;;;;5050658;28;20043;-72
2021/12/17 11:56:48;;;;;;;10.52;4.38;;;9.70;85.80;;;;;;5050503;28;20025;-71
2021/12/17 11:59:27;;;;;;;9.77;4.68;;;9.80;85.70;;;;;;5048066;28;20127;-72
2021/12/17 12:02:04;;;;;;;9.13;5.20;;;9.90;85.50;;;;;;5048630;28;20094;-71
2021/12/17 12:04:32;;;;;;;7.78;4.35;;;9.90;85.20;;;;;;5050351;28;20095;-71
2021/12/17 12:07:03;;;;;;;8.50;4.30;;;9.90;85.30;;;;;;5048310;28;20036;-71
2021/12/17 12:10:08;;;;;;;7.45;5.05;;;10.00;85.10;;;;;;5052175;28;20053;-72
2021/12/17 12:12:34;;;;;;;10.40;4.97;;;9.90;85.00;;;;;;5047511;28;20024;-72
2021/12/17 12:15:25;;;;;;;8.33;4.73;;;10.10;84.50;;;;;;5050784;28;20040;-72
2021/12/17 12:18:15;;;;;;;6.78;4.28;;;9.90;84.20;;;;;;5051027;28;20528;-72
2021/12/17 12:20:56;;;;;;;9.45;4.70;;;9.80;84.90;;;;;;5048576;28;20043;-72
2021/12/17 12:23:39;;;;;;;8.55;4.18;;;9.70;84.50;;;;;;5056219;28;20017;-71
2021/12/17 12:26:04;;;;;;;8.45;4.85;;;9.60;85.60;;;;;;5056837;28;20576;-71
2021/12/17 12:28:49;;;;;;;8.27;4.70;;;9.50;85.70;;;;;;5055653;28;20468;-72
2021/12/17 12:31:17;;;;;;;11.02;4.45;;;9.40;86.20;;;;;;5053461;28;20798;-72
2021/12/17 12:34:04;;;;;;;7.97;4.93;;;9.30;87.10;;;;;;5051663;28;20045;-71
2021/12/17 12:36:50;;;;;;;10.40;4.30;;;8.90;87.80;;;;;;5057793;28;20024;-73
2021/12/17 12:39:17;;;;;;;9.70;4.22;;;8.50;89.40;;;;;;5054500;28;20079;-71
2021/12/17 12:41:57;;;;;;;;;;;8.10;90.40;;;;;;5052389;28;20489;-71
2021/12/17 12:44:41;;;;;;;8.48;4.28;;;7.80;91.20;;;;;;5056469;28;20006;-71
2021/12/17 12:47:29;;;;;;;10.18;4.40;;;7.60;92.10;;;;;;5051479;28;20028;-71
2021/12/17 12:50:04;;;;;;;7.47;4.20;;;7.40;92.70;;;;;;5043546;28;20098;-71
2021/12/17 12:52:39;;;;;;;10.23;4.70;;;7.20;93.20;;;;;;5054908;28;20024;-71
2021/12/17 12:55:04;;;;;;;10.75;4.20;;;7.20;93.60;;;;;;5054211;28;20478;-71
2021/12/17 12:57:42;;;;;;;9.70;4.80;;;7.20;94.00;;;;;;5055766;28;20025;-71
2021/12/17 13:00:14;;;;;;;8.60;4.60;;;7.10;94.20;;;;;;5052719;28;20021;-71
2021/12/17 13:02:42;;;;;;;7.55;4.60;;;7.10;94.50;;;;;;5051664;28;20048;-72
2021/12/17 13:05:09;;;;;;;8.88;4.53;;;7.10;94.50;;;;;;5056896;28;20067;-71
2021/12/17 13:07:35;;;;;;;9.05;5.10;;;7.10;94.60;;;;;;5054477;28;20023;-72
2021/12/17 13:10:16;;;;;;;9.60;4.97;;;7.00;94.70;;;;;;5055676;28;20036;-71
2021/12/17 13:12:55;;;;;;;10.65;5.53;;;7.10;94.90;;;;;;5050397;28;20378;-71
2021/12/17 13:15:39;;;;;;;8.70;5.13;;;7.10;95.00;;;;;;5055249;28;20055;-71
2021/12/17 13:23:21;;;;;;;10.48;5.03;;;7.20;95.20;;;;;;5056007;28;20067;-71
2021/12/17 13:25:58;;;;;;;8.80;4.90;;;7.20;95.10;;;;;;5052336;28;20055;-71
2021/12/17 13:28:25;;;;;;;;;;;7.30;95.20;;;;;;5052521;28;20021;-71
2021/12/17 13:30:55;;;;;;;9.73;5.15;;;7.30;95.30;;;;;;5049160;28;19908;-71
2021/12/17 13:33:21;;;;;;;11.18;5.00;;;7.20;95.20;;;;;;5054751;28;20016;-71
2021/12/17 13:35:47;;;;;;;9.47;5.00;;;7.20;95.20;;;;;;5048149;28;20034;-71
2021/12/17 13:38:13;;;;;;;8.55;4.40;;;7.10;95.50;;;;;;5055450;28;20024;-72
2021/12/17 13:40:39;;;;;;;8.73;4.87;;;7.00;95.90;;;;;;5049814;28;20072;-71
2021/12/17 13:43:05;;;;;;;11.30;5.13;;;7.00;96.30;;;;;;5055345;28;20028;-72
2021/12/17 13:45:31;;;;;;;;;;;6.90;96.20;;;;;;5054542;28;20032;-71
2021/12/17 13:47:57;;;;;;;7.40;4.35;;;6.90;96.50;;;;;;5050620;28;19931;-72
2021/12/17 13:50:32;;;;;;;9.13;4.75;;;6.80;96.30;;;;;;5048882;28;20048;-71
2021/12/17 13:53:15;;;;;;;9.32;4.72;;;6.80;96.80;;;;;;5049213;28;20106;-71
2021/12/17 13:55:47;;;;;;;8.90;4.95;;;6.80;96.80;;;;;;5047292;28;20056;-73
2021/12/17 13:58:22;;;;;;;14.25;6.00;;;6.80;97.00;;;;;;5055237;28;20115;-71
2021/12/17 14:00:58;;;;;;;8.25;4.45;;;6.70;97.10;;;;;;5048687;28;20029;-72
2021/12/17 14:03:30;;;;;;;9.32;5.03;;;6.70;97.10;;;;;;5054775;28;20797;-71
2021/12/17 14:06:08;;;;;;;8.13;4.75;;;6.70;97.20;;;;;;5049995;28;20021;-71
2021/12/17 14:08:41;;;;;;;10.48;4.68;;;6.60;96.80;;;;;;5054209;28;20060;-72
2021/12/17 14:11:25;;;;;;;10.73;4.72;;;6.50;97.30;;;;;;5054155;28;20784;-72
2021/12/17 14:13:51;;;;;;;9.70;4.40;;;6.50;97.50;;;;;;5050843;28;20020;-72
2021/12/17 14:16:29;;;;;;;8.93;4.47;;;6.40;97.70;;;;;;5054759;28;20117;-71
2021/12/17 14:19:00;;;;;;;9.15;4.57;;;6.30;97.80;;;;;;5046225;28;20039;-71
2021/12/17 14:21:31;;;;;;;9.15;4.60;;;6.30;97.90;;;;;;5054038;28;20462;-71
2021/12/17 14:23:58;;;;;;;10.15;4.78;;;6.20;98.00;;;;;;5051382;28;20201;-72
2021/12/17 14:26:29;;;;;;;7.80;4.95;;;6.20;98.20;;;;;;5055071;28;20016;-71
2021/12/17 14:29:06;;;;;;;8.73;4.82;;;6.10;98.30;;;;;;5050223;28;20108;-71
2021/12/17 14:31:32;;;;;;;8.82;4.60;;;6.10;98.40;;;;;;5050775;28;20017;-71
2021/12/17 14:33:57;;;;;;;10.87;5.13;;;6.10;98.40;;;;;;5050349;28;20028;-71
2021/12/17 14:36:29;;;;;;;9.60;5.20;;;6.10;98.50;;;;;;5052074;28;20031;-71
2021/12/17 14:39:13;;;;;;;11.65;5.25;;;6.00;98.50;;;;;;5051152;28;20024;-71
2021/12/17 14:41:57;;;;;;;10.82;5.00;;;6.00;98.60;;;;;;5046815;28;20036;-72
2021/12/17 14:47:19;;;;;;;9.82;5.88;;;6.00;98.50;;;;;;5046658;28;20816;-71
2021/12/17 15:06:11;;;;;;;8.97;4.67;;;6.00;98.90;;;;;;5053133;28;20142;-72
2021/12/17 15:08:37;;;;;;;12.57;5.03;;;6.00;98.80;;;;;;5053515;28;20107;-72
2021/12/17 15:11:13;;;;;;;9.10;4.78;;;6.00;98.40;;;;;;5050495;28;20025;-71
2021/12/17 15:13:39;;;;;;;7.95;4.88;;;6.00;98.50;;;;;;5049284;28;20427;-72
2021/12/17 15:16:06;;;;;;;11.98;4.82;;;6.00;98.40;;;;;;5053297;28;20100;-72
2021/12/17 15:18:32;;;;;;;;;;;6.00;98.50;;;;;;5051455;28;20032;-71
2021/12/17 15:20:58;;;;;;;8.48;4.53;;;6.00;98.40;;;;;;5049051;28;19919;-71
2021/12/17 15:23:25;;;;;;;7.50;4.53;;;6.00;98.40;;;;;;5052210;28;20017;-72
2021/12/17 15:25:52;;;;;;;9.60;4.85;;;6.00;98.30;;;;;;5049100;28;20024;-72
2021/12/17 15:28:23;;;;;;;9.15;4.68;;;6.00;98.30;;;;;;5053034;28;20059;-72
2021/12/17 15:30:51;;;;;;;11.65;5.47;;;6.00;98.20;;;;;;5049209;28;20155;-72
2021/12/17 15:33:18;;;;;;;9.45;4.78;;;6.10;98.20;;;;;;5051520;28;20035;-71
2021/12/17 15:35:46;;;;;;;10.52;4.90;;;6.10;98.30;;;;;;5049323;28;20028;-72
2021/12/17 15:38:13;;;;;;;10.00;5.10;;;6.10;98.50;;;;;;5052750;28;20120;-71
2021/12/17 15:40:41;;;;;;;11.23;5.75;;;6.00;98.70;;;;;;5049799;28;20029;-72
2021/12/17 15:43:09;;;;;;;8.43;4.75;;;6.00;98.70;;;;;;5049965;28;20112;-72
2021/12/17 15:45:38;;;;;;;12.07;5.35;;;6.00;98.90;;;;;;5052515;28;20046;-72
2021/12/17 15:48:07;;;;;;;12.55;5.28;;;6.00;99.00;;;;;;5051574;28;20035;-71
2021/12/17 15:50:34;;;;;;;7.70;5.05;;;6.00;99.10;;;;;;5049819;28;20029;-71
2021/12/17 15:53:00;;;;;;;11.77;5.50;;;6.00;98.70;;;;;;5046680;28;20032;-72
2021/12/17 15:55:28;;;;;;;11.80;5.20;;;6.00;98.90;;;;;;5050373;28;20017;-73
2021/12/17 15:57:56;;;;;;;10.48;5.13;;;6.00;99.00;;;;;;5045809;28;20031;-72
2021/12/17 16:00:27;;;;;;;12.40;5.50;;;6.00;99.10;;;;;;5047751;28;20435;-72
2021/12/17 16:02:53;;;;;;;10.82;6.15;;;6.00;98.90;;;;;;5042660;28;20624;-72
2021/12/17 16:05:21;;;;;;;8.73;5.57;;;6.00;99.00;;;;;;5050073;28;20858;-72
2021/12/17 16:07:48;;;;;;;11.43;5.63;;;5.90;98.70;;;;;;5046266;28;20016;-72
2021/12/17 16:21:03;;;;;;;11.93;5.93;;;5.70;99.90;;;;;;5048436;28;20128;-71
2021/12/17 16:23:33;;;;;;;12.07;5.47;;;5.70;99.90;;;;;;5050058;28;20020;-72
2021/12/17 16:26:00;;;;;;;11.25;5.32;;;5.70;99.90;;;;;;5048108;28;20040;-72
2021/12/17 16:28:29;;;;;;;12.02;5.95;;;5.70;99.90;;;;;;5052805;28;20024;-71
2021/12/17 16:31:04;;;;;;;14.13;6.22;;;5.60;99.90;;;;;;5047943;28;20401;-72
2021/12/17 16:33:31;;;;;;;10.27;5.85;;;5.60;99.90;;;;;;5048679;28;20623;-72
2021/12/17 16:35:59;;;;;;;9.68;5.68;;;5.60;99.90;;;;;;5049129;28;20413;-72
2021/12/17 16:38:27;;;;;;;9.32;5.68;;;5.60;99.90;;;;;;5051208;28;20030;-72
2021/12/17 16:40:56;;;;;;;10.30;5.72;;;5.60;99.90;;;;;;5048772;28;20020;-71
2021/12/17 16:43:23;;;;;;;10.27;6.35;;;5.70;99.90;;;;;;5051282;28;20048;-72